地図

経路データ

SID SEASON NUMBER BASIN SUBBASIN NAME ISO_TIME NATURE LAT LON WMO_WIND WMO_PRES WMO_AGENCY TRACK_TYPE DIST2LAND LANDFALL IFLAG USA_AGENCY USA_ATCF_ID USA_LAT USA_LON USA_RECORD USA_STATUS USA_WIND USA_PRES USA_SSHS USA_R34_NE USA_R34_SE USA_R34_SW USA_R34_NW USA_R50_NE USA_R50_SE USA_R50_SW USA_R50_NW USA_R64_NE USA_R64_SE USA_R64_SW USA_R64_NW USA_POCI USA_ROCI USA_RMW USA_EYE TOKYO_LAT TOKYO_LON TOKYO_GRADE TOKYO_WIND TOKYO_PRES TOKYO_R50_DIR TOKYO_R50_LONG TOKYO_R50_SHORT TOKYO_R30_DIR TOKYO_R30_LONG TOKYO_R30_SHORT TOKYO_LAND CMA_LAT CMA_LON CMA_CAT CMA_WIND CMA_PRES HKO_LAT HKO_LON HKO_CAT HKO_WIND HKO_PRES NEWDELHI_LAT NEWDELHI_LON NEWDELHI_GRADE NEWDELHI_WIND NEWDELHI_PRES NEWDELHI_CI NEWDELHI_DP NEWDELHI_POCI REUNION_LAT REUNION_LON REUNION_TYPE REUNION_WIND REUNION_PRES REUNION_TNUM REUNION_CI REUNION_RMW REUNION_R34_NE REUNION_R34_SE REUNION_R34_SW REUNION_R34_NW REUNION_R50_NE REUNION_R50_SE REUNION_R50_SW REUNION_R50_NW REUNION_R64_NE REUNION_R64_SE REUNION_R64_SW REUNION_R64_NW BOM_LAT BOM_LON BOM_TYPE BOM_WIND BOM_PRES BOM_TNUM BOM_CI BOM_RMW BOM_R34_NE BOM_R34_SE BOM_R34_SW BOM_R34_NW BOM_R50_NE BOM_R50_SE BOM_R50_SW BOM_R50_NW BOM_R64_NE BOM_R64_SE BOM_R64_SW BOM_R64_NW BOM_ROCI BOM_POCI BOM_EYE BOM_POS_METHOD BOM_PRES_METHOD NADI_LAT NADI_LON NADI_CAT NADI_WIND NADI_PRES WELLINGTON_LAT WELLINGTON_LON WELLINGTON_WIND WELLINGTON_PRES DS824_LAT DS824_LON DS824_STAGE DS824_WIND DS824_PRES TD9636_LAT TD9636_LON TD9636_STAGE TD9636_WIND TD9636_PRES TD9635_LAT TD9635_LON TD9635_WIND TD9635_PRES TD9635_ROCI NEUMANN_LAT NEUMANN_LON NEUMANN_CLASS NEUMANN_WIND NEUMANN_PRES MLC_LAT MLC_LON MLC_CLASS MLC_WIND MLC_PRES USA_GUST BOM_GUST BOM_GUST_PER REUNION_GUST REUNION_GUST_PER USA_SEAHGT USA_SEARAD_NE USA_SEARAD_SE USA_SEARAD_SW USA_SEARAD_NW STORM_SPEED STORM_DIR
1967229N18344 1967 74 NA NA NOT_NAMED 1967-08-16 12:00:00 TS 18.0000 -16.1000 hurdat_atl main 10 10 O_____________ hurdat_atl AL091967 18.0000 -16.1000 TD -1 9 271
1967229N18344 1967 74 NA NA NOT_NAMED 1967-08-16 15:00:00 TS 18.0077 -16.5500 main 52 52 P_____________ AL091967 18.0077 -16.5500 TD -1 9 270
1967229N18344 1967 74 NA NA NOT_NAMED 1967-08-16 18:00:00 TS 18.0000 -17.0000 hurdat_atl main 105 105 O_____________ hurdat_atl AL091967 18.0000 -17.0000 TD -1 9 267
1967229N18344 1967 74 NA NA NOT_NAMED 1967-08-16 21:00:00 TS 17.9649 -17.4500 main 144 144 P_____________ AL091967 17.9649 -17.4500 TD -1 9 263
1967229N18344 1967 74 NA NA NOT_NAMED 1967-08-17 00:00:00 TS 17.9000 -17.9000 hurdat_atl main 198 198 O_____________ hurdat_atl AL091967 17.9000 -17.9000 TD -1 9 260
1967229N18344 1967 74 NA NA NOT_NAMED 1967-08-17 03:00:00 TS 17.8149 -18.3500 main 236 236 P_____________ AL091967 17.8149 -18.3500 TD -1 9 257
1967229N18344 1967 74 NA NA NOT_NAMED 1967-08-17 06:00:00 TS 17.7000 -18.8000 hurdat_atl main 283 283 O_____________ hurdat_atl AL091967 17.7000 -18.8000 TD -1 9 253
1967229N18344 1967 74 NA NA NOT_NAMED 1967-08-17 09:00:00 TS 17.5648 -19.2349 main 317 317 P_____________ AL091967 17.5648 -19.2349 TD -1 9 251
1967229N18344 1967 74 NA NA NOT_NAMED 1967-08-17 12:00:00 TS 17.4000 -19.7000 hurdat_atl main 362 362 O_____________ hurdat_atl AL091967 17.4000 -19.7000 TD -1 10 248
1967229N18344 1967 74 NA NA NOT_NAMED 1967-08-17 15:00:00 TS 17.1774 -20.2278 main 402 402 P_____________ AL091967 17.1774 -20.2278 TD -1 11 249
1967229N18344 1967 74 NA NA NOT_NAMED 1967-08-17 18:00:00 TS 17.0000 -20.8000 hurdat_atl main 436 436 O_____________ hurdat_atl AL091967 17.0000 -20.8000 TD -1 11 260
1967229N18344 1967 74 NA NA NOT_NAMED 1967-08-17 21:00:00 TS 16.9700 -21.3997 main 490 490 P_____________ AL091967 16.9700 -21.3997 TD -1 11 270
1967229N18344 1967 74 NA NA NOT_NAMED 1967-08-18 00:00:00 TS 17.0000 -22.0000 hurdat_atl main 545 545 O_____________ hurdat_atl AL091967 17.0000 -22.0000 TD -1 11 272
1967229N18344 1967 74 NA NA NOT_NAMED 1967-08-18 03:00:00 TS 17.0073 -22.5649 main 603 603 P_____________ AL091967 17.0073 -22.5649 TD -1 11 270
1967229N18344 1967 74 NA NA NOT_NAMED 1967-08-18 06:00:00 TS 17.0000 -23.1000 hurdat_atl main 652 652 O_____________ hurdat_atl AL091967 17.0000 -23.1000 TD -1 10 267
1967229N18344 1967 74 NA NA NOT_NAMED 1967-08-18 09:00:00 TS 16.9498 -23.6001 main 697 697 P_____________ AL091967 16.9498 -23.6001 TD -1 10 264
1967229N18344 1967 74 NA NA NOT_NAMED 1967-08-18 12:00:00 TS 16.9000 -24.1000 hurdat_atl main 748 748 O_____________ hurdat_atl AL091967 16.9000 -24.1000 TD -1 10 266
1967229N18344 1967 74 NA NA NOT_NAMED 1967-08-18 15:00:00 TS 16.8846 -24.6125 main 798 798 P_____________ AL091967 16.8846 -24.6125 TD -1 11 270
1967229N18344 1967 74 NA NA NOT_NAMED 1967-08-18 18:00:00 TS 16.9000 -25.2000 hurdat_atl main 860 860 O_____________ hurdat_atl AL091967 16.9000 -25.2000 TD -1 13 273
1967229N18344 1967 74 NA NA NOT_NAMED 1967-08-18 21:00:00 TS 16.9503 -25.9424 main 934 934 P_____________ AL091967 16.9503 -25.9424 TD -1 14 274
1967229N18344 1967 74 NA NA NOT_NAMED 1967-08-19 00:00:00 TS 17.0000 -26.7000 hurdat_atl main 1017 1017 O_____________ hurdat_atl AL091967 17.0000 -26.7000 TD -1 13 272
1967229N18344 1967 74 NA NA NOT_NAMED 1967-08-19 03:00:00 TS 17.0071 -27.3226 main 1079 1079 P_____________ AL091967 17.0071 -27.3226 TD -1 11 270
1967229N18344 1967 74 NA NA NOT_NAMED 1967-08-19 06:00:00 TS 17.0000 -27.9000 hurdat_atl main 1142 1142 O_____________ hurdat_atl AL091967 17.0000 -27.9000 TD -1 11 270
1967229N18344 1967 74 NA NA NOT_NAMED 1967-08-19 09:00:00 TS 16.9980 -28.4925 main 1204 1204 P_____________ AL091967 16.9980 -28.4925 TD -1 11 270
1967229N18344 1967 74 NA NA NOT_NAMED 1967-08-19 12:00:00 TS 17.0000 -29.1000 hurdat_atl main 1267 O_____________ hurdat_atl AL091967 17.0000 -29.1000 TD -1 12 270

IBTrACS Databaseについて

本データベースは、米国NOAAが公開する1842年以降の世界の熱帯低気圧のベストトラックデータアーカイブInternational Best Track Archive for Climate Stewardship (IBTrACS)を、ウェブで閲覧しやすい形式に変換したものです。

最終更新日:2021-11-26